Time;durP1;ratioP1;P1;durP2;ratioP2;P2;SDS_P1;SDS_P2;PMS_P1;PMS_P2;Temp;Humidity;BMP_temperature;BMP_pressure;BME280_temperature;BME280_humidity;BME280_pressure;Samples;Min_cycle;Max_cycle;Signal;HPM_P1;HPM_P2
2021/03/23 00:01:45;;;;;;;6.10;1.87;;;;;;;-1.52;60.58;98833.05;1757407;81;21369;-72
2021/03/23 00:04:14;;;;;;;8.38;2.02;;;;;;;-1.58;60.75;98836.76;1787965;80;21540;-73
2021/03/23 00:06:42;;;;;;;8.93;2.58;;;;;;;-1.62;61.76;98831.60;1757541;81;21018;-73
2021/03/23 00:09:10;;;;;;;9.28;2.25;;;;;;;-1.66;61.40;98833.98;1787843;80;21147;-73
2021/03/23 00:11:40;;;;;;;5.00;1.50;;;;;;;-1.69;61.11;98833.15;1757594;81;21505;-73
2021/03/23 00:14:11;;;;;;;10.00;2.42;;;;;;;-1.73;61.14;98836.06;1787933;80;21357;-73
2021/03/23 00:16:42;;;;;;;8.03;2.70;;;;;;;-1.76;61.57;98837.95;1757732;81;21630;-73
2021/03/23 00:19:10;;;;;;;4.45;1.90;;;;;;;-1.80;61.81;98842.20;1759353;80;20985;-73
2021/03/23 00:21:38;;;;;;;7.22;2.35;;;;;;;-1.88;61.91;98844.00;1757503;81;20954;-72
2021/03/23 00:24:06;;;;;;;9.40;2.37;;;;;;;-1.96;62.13;98833.15;1787904;80;21496;-72
2021/03/23 00:26:34;;;;;;;4.42;2.00;;;;;;;-2.01;63.29;98832.56;1757564;81;21380;-72
2021/03/23 00:29:02;;;;;;;6.60;2.30;;;;;;;-2.04;63.05;98827.68;1787817;80;20969;-72
2021/03/23 00:31:32;;;;;;;5.20;1.75;;;;;;;-2.07;63.11;98831.41;1757559;81;21171;-74
2021/03/23 00:34:03;;;;;;;6.53;2.20;;;;;;;-2.12;63.64;98828.12;1787900;80;21005;-72
2021/03/23 00:36:38;;;;;;;7.03;2.33;;;;;;;-2.18;64.10;98833.16;1757639;81;21144;-73
2021/03/23 00:39:08;;;;;;;7.62;2.12;;;;;;;-2.21;64.23;98831.50;1788046;80;21496;-73
2021/03/23 00:41:38;;;;;;;9.60;2.50;;;;;;;-2.23;64.26;98826.90;1757529;81;20966;-73
2021/03/23 00:44:08;;;;;;;4.15;1.82;;;;;;;-2.27;65.20;98831.15;1788038;80;21032;-73
2021/03/23 00:46:36;;;;;;;9.10;2.60;;;;;;;-2.31;65.24;98824.11;1757504;81;21074;-74
2021/03/23 00:49:04;;;;;;;7.42;2.80;;;;;;;-2.37;65.67;98831.86;1786878;80;20985;-75
2021/03/23 00:51:33;;;;;;;13.50;4.22;;;;;;;-2.43;66.09;98830.17;1750466;81;22391;-74
2021/03/23 00:54:00;;;;;;;15.55;4.05;;;;;;;-2.50;66.24;98833.03;1766398;81;21572;-73
2021/03/23 00:56:28;;;;;;;30.88;7.22;;;;;;;-2.52;66.36;98824.94;1787903;80;20950;-73
2021/03/23 00:58:56;;;;;;;33.45;9.20;;;;;;;-2.52;66.60;98831.66;1735755;82;21092;-73
2021/03/23 01:01:23;;;;;;;32.00;9.85;;;;;;;-2.53;66.84;98826.81;1787757;80;21204;-73
2021/03/23 01:03:52;;;;;;;56.83;16.82;;;;;;;-2.53;67.07;98836.75;1735800;82;21662;-73
2021/03/23 01:06:20;;;;;;;36.65;11.70;;;;;;;-2.56;67.28;98835.90;1787813;80;21225;-73
2021/03/23 01:08:47;;;;;;;38.67;10.98;;;;;;;-2.60;67.53;98828.86;1759256;81;21097;-73
2021/03/23 01:11:14;;;;;;;37.55;10.55;;;;;;;-2.62;67.85;98834.20;1766449;81;20974;-73
2021/03/23 01:13:42;;;;;;;39.65;11.40;;;;;;;-2.65;68.02;98830.13;1790944;80;20969;-73
2021/03/23 01:16:09;;;;;;;41.02;10.25;;;;;;;-2.69;68.18;98829.81;1759397;81;22590;-73
2021/03/23 01:18:39;;;;;;;31.25;9.00;;;;;;;-2.71;68.37;98829.25;1766469;81;20954;-73
2021/03/23 01:21:06;;;;;;;28.02;7.30;;;;;;;-2.72;68.40;98836.21;1735934;81;20961;-72
2021/03/23 01:23:34;;;;;;;23.27;7.03;;;;;;;-2.77;68.50;98831.58;1788035;80;20997;-72
2021/03/23 01:26:01;;;;;;;19.95;5.08;;;;;;;-2.81;68.59;98830.97;1735941;82;21057;-72
2021/03/23 01:28:28;;;;;;;19.30;5.35;;;;;;;-2.84;68.79;98830.94;1788016;80;21738;-73
2021/03/23 01:30:56;;;;;;;16.60;5.35;;;;;;;-2.88;68.94;98830.33;1735868;82;20969;-73
2021/03/23 01:33:23;;;;;;;17.48;4.87;;;;;;;-2.95;69.16;98833.21;1788019;80;21171;-73
2021/03/23 01:35:51;;;;;;;16.00;4.90;;;;;;;-3.00;69.30;98829.92;1735873;82;21017;-73
2021/03/23 01:38:20;;;;;;;10.20;4.00;;;;;;;-3.02;69.48;98829.88;1788050;80;21175;-73
2021/03/23 01:40:48;;;;;;;15.28;4.70;;;;;;;-3.04;69.65;98822.06;1735910;82;21216;-73
2021/03/23 01:43:24;;;;;;;15.50;5.15;;;;;;;-3.07;69.75;98821.21;1787959;80;21662;-72
2021/03/23 01:45:52;;;;;;;17.07;5.05;;;;;;;-3.08;69.85;98827.64;1735673;82;21159;-73
2021/03/23 01:48:23;;;;;;;12.60;5.10;;;;;;;-3.09;70.04;98827.88;1787982;80;21077;-73
2021/03/23 01:50:56;;;;;;;16.57;5.05;;;;;;;-3.12;70.18;98825.69;1735962;82;21187;-73
2021/03/23 01:53:39;;;;;;;16.27;6.05;;;;;;;-3.16;70.23;98824.02;1787983;80;21797;-73
2021/03/23 01:56:07;;;;;;;16.20;6.58;;;;;;;-3.18;70.48;98823.98;1735802;82;20958;-73
2021/03/23 01:58:38;;;;;;;14.53;6.08;;;;;;;-3.22;70.99;98822.84;1759491;80;20914;-73
2021/03/23 02:01:07;;;;;;;15.30;5.65;;;;;;;-3.26;71.10;98825.72;1735879;82;20950;-73
2021/03/23 02:03:35;;;;;;;16.17;5.75;;;;;;;-3.28;71.16;98825.16;1790802;80;21468;-73
2021/03/23 02:06:04;;;;;;;13.35;4.20;;;;;;;-3.32;71.42;98826.98;1791163;80;22295;-73
2021/03/23 02:08:32;;;;;;;8.78;3.90;;;;;;;-3.34;71.56;98824.25;1791000;80;20997;-73
2021/03/23 02:11:00;;;;;;;11.97;3.35;;;;;;;-3.36;71.64;98823.69;1791062;80;21029;-72
2021/03/23 02:13:28;;;;;;;5.67;2.60;;;;;;;-3.37;71.69;98822.87;1791039;80;21048;-72
2021/03/23 02:15:56;;;;;;;10.08;3.02;;;;;;;-3.36;71.93;98825.84;1791107;80;20918;-72
2021/03/23 02:18:26;;;;;;;12.13;3.10;;;;;;;-3.38;71.98;98829.30;1791027;80;21046;-73
2021/03/23 02:21:07;;;;;;;5.87;1.90;;;;;;;-3.38;71.96;98818.55;1790994;80;21115;-73
2021/03/23 02:23:48;;;;;;;8.53;2.80;;;;;;;-3.41;72.24;98825.75;1791383;80;20922;-73
2021/03/23 02:26:21;;;;;;;6.10;2.22;;;;;;;-3.43;72.36;98821.16;1791072;80;20894;-72
2021/03/23 02:28:58;;;;;;;8.45;2.33;;;;;;;-3.46;72.37;98818.14;1790447;80;21073;-73
2021/03/23 02:31:33;;;;;;;9.43;2.15;;;;;;;-3.48;72.43;98817.07;1791189;80;22268;-73
2021/03/23 02:34:04;;;;;;;7.03;1.98;;;;;;;-3.49;72.76;98822.68;1790988;80;20982;-73
2021/03/23 02:36:33;;;;;;;6.35;2.10;;;;;;;-3.51;72.85;98816.22;1776127;80;21100;-73
2021/03/23 02:39:00;;;;;;;6.08;2.37;;;;;;;-3.50;72.97;98817.84;1791103;80;21159;-73
2021/03/23 02:41:27;;;;;;;7.05;1.50;;;;;;;-3.48;73.21;98819.76;1791151;80;21005;-74
2021/03/23 02:43:55;;;;;;;5.78;2.10;;;;;;;-3.48;73.34;98818.94;1791085;80;21627;-73
2021/03/23 02:46:24;;;;;;;8.10;2.65;;;;;;;-3.51;73.26;98818.90;1790945;80;21077;-73
2021/03/23 02:48:51;;;;;;;10.38;3.00;;;;;;;-3.54;73.25;98821.25;1791029;80;20986;-73
2021/03/23 02:51:19;;;;;;;11.10;3.60;;;;;;;-3.57;73.79;98827.09;1791131;80;21472;-73
2021/03/23 02:53:48;;;;;;;15.13;3.83;;;;;;;-3.59;73.92;98826.00;1791063;80;21461;-72
2021/03/23 02:56:16;;;;;;;11.45;3.47;;;;;;;-3.60;73.95;98822.22;1781805;80;22372;-73
2021/03/23 02:58:44;;;;;;;9.15;3.37;;;;;;;-3.61;73.86;98832.13;1771625;80;21017;-74
2021/03/23 03:01:14;;;;;;;11.88;2.77;;;;;;;-3.66;74.22;98831.52;1759733;81;20993;-73
2021/03/23 03:03:41;;;;;;;13.65;3.58;;;;;;;-3.69;74.44;98829.84;1759697;81;21135;-73
2021/03/23 03:06:09;;;;;;;8.95;2.98;;;;;;;-3.68;74.50;98833.63;1759782;81;21504;-74
2021/03/23 03:08:36;;;;;;;8.90;2.60;;;;;;;-3.64;74.61;98827.77;1759865;81;21488;-73
2021/03/23 03:11:04;;;;;;;12.23;3.08;;;;;;;-3.61;74.65;98826.77;1759700;81;21607;-73
2021/03/23 03:13:33;;;;;;;10.03;3.08;;;;;;;-3.56;74.68;98830.07;1759750;81;20989;-73
2021/03/23 03:16:01;;;;;;;13.03;2.98;;;;;;;-3.52;74.62;98831.22;1759748;81;21162;-73
2021/03/23 03:18:29;;;;;;;8.35;2.67;;;;;;;-3.48;74.75;98823.78;1759783;81;21070;-73
2021/03/23 03:20:58;;;;;;;8.68;2.40;;;;;;;-3.42;74.81;98831.36;1759748;81;21512;-73
2021/03/23 03:23:25;;;;;;;6.47;2.50;;;;;;;-3.37;74.67;98823.40;1759785;81;21517;-73
2021/03/23 03:25:53;;;;;;;7.97;2.47;;;;;;;-3.33;74.68;98825.35;1759755;81;21139;-73
2021/03/23 03:28:20;;;;;;;10.58;2.50;;;;;;;-3.27;74.86;98822.75;1733954;81;21180;-73
2021/03/23 03:30:48;;;;;;;6.37;1.98;;;;;;;-3.25;74.78;98820.11;1759823;81;21468;-73
2021/03/23 03:33:19;;;;;;;8.03;2.33;;;;;;;-3.21;74.72;98823.94;1759753;81;21871;-73
2021/03/23 03:35:47;;;;;;;8.38;3.02;;;;;;;-3.17;74.78;98822.92;1759897;81;21576;-73
2021/03/23 03:38:16;;;;;;;5.83;2.33;;;;;;;-3.14;74.76;98822.44;1759878;81;21484;-73
2021/03/23 03:40:47;;;;;;;11.15;3.00;;;;;;;-3.13;74.63;98818.69;1759735;81;21148;-73
2021/03/23 03:43:16;;;;;;;9.73;3.00;;;;;;;-3.10;74.56;98819.55;1759277;81;20954;-73
2021/03/23 03:45:43;;;;;;;5.12;2.15;;;;;;;-3.08;75.11;98820.11;1759730;81;21147;-74
2021/03/23 03:48:11;;;;;;;5.72;2.52;;;;;;;-3.05;75.04;98821.78;1759613;81;21146;-73
2021/03/23 03:50:38;;;;;;;11.57;2.47;;;;;;;-3.03;74.94;98821.53;1759749;81;21099;-73
2021/03/23 03:53:07;;;;;;;5.83;2.20;;;;;;;-3.00;75.31;98827.23;1759708;81;21072;-73
2021/03/23 03:55:37;;;;;;;6.10;2.22;;;;;;;-2.95;75.49;98823.81;1759686;81;20942;-73
2021/03/23 03:58:04;;;;;;;4.67;1.95;;;;;;;-2.92;75.25;98828.69;1759812;81;21380;-73
2021/03/23 04:00:32;;;;;;;6.47;2.55;;;;;;;-2.89;75.04;98832.23;1759614;81;21541;-73
2021/03/23 04:03:02;;;;;;;11.57;2.55;;;;;;;-2.88;75.10;98831.14;1759599;81;21179;-73
2021/03/23 04:05:36;;;;;;;7.53;2.02;;;;;;;-2.85;75.12;98833.33;1759719;81;21163;-73
2021/03/23 04:08:04;;;;;;;5.35;1.98;;;;;;;-2.81;74.94;98830.44;1759853;81;21152;-73
2021/03/23 04:10:33;;;;;;;6.97;2.47;;;;;;;-2.79;74.80;98835.03;1759705;81;21273;-73
2021/03/23 04:13:00;;;;;;;3.85;1.98;;;;;;;-2.73;74.88;98838.61;1759624;81;21040;-73
2021/03/23 04:15:37;;;;;;;13.85;3.10;;;;;;;-2.71;74.88;98833.80;1759675;81;21092;-74
2021/03/23 04:18:05;;;;;;;6.58;2.15;;;;;;;-2.68;74.87;98839.50;1759811;81;21109;-73
2021/03/23 04:20:33;;;;;;;6.97;2.22;;;;;;;-2.63;74.72;98841.98;1734006;81;21142;-74
2021/03/23 04:23:00;;;;;;;12.70;2.75;;;;;;;-2.60;75.12;98845.52;1759693;81;21430;-74
2021/03/23 04:25:30;;;;;;;4.35;2.00;;;;;;;-2.58;74.69;98842.05;1759627;81;21545;-73
2021/03/23 04:27:57;;;;;;;7.83;2.83;;;;;;;-2.58;74.58;98844.73;1759737;81;21091;-73
2021/03/23 04:30:26;;;;;;;9.13;2.45;;;;;;;-2.55;74.54;98848.27;1759676;81;21081;-73
2021/03/23 04:32:55;;;;;;;5.42;2.30;;;;;;;-2.53;74.65;98844.28;1759747;81;21548;-73
2021/03/23 04:35:46;;;;;;;5.30;1.98;;;;;;;-2.51;74.38;98845.38;1759681;81;21198;-72
2021/03/23 04:38:19;;;;;;;7.22;2.22;;;;;;;-2.47;74.34;98851.88;1759650;81;21092;-72
2021/03/23 04:40:47;;;;;;;8.28;2.77;;;;;;;-2.40;74.69;98847.14;1734252;81;21092;-72
2021/03/23 04:43:29;;;;;;;7.40;2.25;;;;;;;-2.31;74.70;98844.84;1759690;81;21073;-73
2021/03/23 04:45:57;;;;;;;7.20;2.80;;;;;;;-2.24;74.12;98851.63;1759999;81;21052;-74
2021/03/23 04:48:25;;;;;;;6.95;2.60;;;;;;;-2.16;74.38;98850.37;1759642;81;22370;-74
2021/03/23 04:50:54;;;;;;;7.53;2.55;;;;;;;-2.07;73.67;98844.31;1759625;81;20961;-74
2021/03/23 04:53:27;;;;;;;11.88;3.30;;;;;;;-2.01;72.90;98843.31;1759689;81;21144;-75
2021/03/23 04:55:54;;;;;;;6.67;2.40;;;;;;;-1.92;73.08;98848.25;1734316;81;21163;-74
2021/03/23 04:58:23;;;;;;;12.05;2.87;;;;;;;-1.81;73.60;98845.96;1759691;81;21130;-75
2021/03/23 05:00:50;;;;;;;7.83;3.30;;;;;;;-1.74;72.36;98844.70;1759656;81;21172;-75
2021/03/23 05:03:28;;;;;;;13.58;3.83;;;;;;;-1.69;72.13;98846.60;1769056;80;21159;-75
2021/03/23 05:05:58;;;;;;;18.05;5.08;;;;;;;-1.60;71.96;98846.44;1789366;80;21099;-75
2021/03/23 05:08:25;;;;;;;13.25;4.35;;;;;;;-1.50;71.63;98851.92;1788252;80;21456;-74
2021/03/23 05:10:54;;;;;;;12.25;3.90;;;;;;;-1.41;71.12;98851.74;1790936;80;21111;-74
2021/03/23 05:13:21;;;;;;;15.95;4.40;;;;;;;-1.32;70.48;98856.67;1790901;80;21355;-74
2021/03/23 05:15:49;;;;;;;16.32;5.53;;;;;;;-1.23;70.06;98859.17;1790840;80;20969;-74
2021/03/23 05:18:17;;;;;;;10.88;3.50;;;;;;;-1.18;69.73;98855.19;1790921;80;21072;-75
2021/03/23 05:20:45;;;;;;;10.03;3.27;;;;;;;-1.17;69.12;98856.27;1790903;80;21054;-74
2021/03/23 05:23:13;;;;;;;6.83;3.00;;;;;;;-1.14;68.88;98858.96;1791009;80;21571;-74
2021/03/23 05:25:42;;;;;;;9.40;2.52;;;;;;;-1.12;68.52;98858.17;1790933;80;21182;-74
2021/03/23 05:28:10;;;;;;;10.88;4.00;;;;;;;-1.10;68.14;98860.08;1790846;80;21132;-74
2021/03/23 05:30:38;;;;;;;19.05;4.47;;;;;;;-1.07;67.97;98862.25;1790914;80;20921;-74
2021/03/23 05:33:07;;;;;;;8.28;2.42;;;;;;;-1.07;66.71;98854.17;1790936;80;20929;-74
2021/03/23 05:35:35;;;;;;;8.68;2.37;;;;;;;-1.03;66.27;98857.98;1791007;80;21488;-73
2021/03/23 05:38:02;;;;;;;8.40;2.30;;;;;;;-0.98;66.25;98862.06;1790894;80;21648;-74
2021/03/23 05:40:42;;;;;;;7.95;2.50;;;;;;;-0.93;66.08;98855.91;1784537;80;21461;-74
2021/03/23 05:43:31;;;;;;;14.78;3.10;;;;;;;-0.89;66.00;98859.17;1777474;80;20907;-74
2021/03/23 05:46:37;;;;;;;11.97;3.92;;;;;;;-0.85;65.44;98857.59;1790932;80;20926;-74
2021/03/23 05:49:23;;;;;;;9.13;3.30;;;;;;;-0.86;64.49;98855.97;1791001;80;20914;-74
2021/03/23 05:52:22;;;;;;;10.05;3.70;;;;;;;-0.84;65.15;98857.05;1744578;80;22557;-74
2021/03/23 05:55:11;;;;;;;8.35;2.85;;;;;;;-0.76;64.77;98866.82;1790967;80;21607;-74
2021/03/23 05:57:45;;;;;;;11.22;3.62;;;;;;;-0.72;64.40;98860.38;1729076;80;21453;-74
2021/03/23 06:00:36;;;;;;;13.38;4.70;;;;;;;-0.68;64.16;98869.57;1791093;80;21584;-74
2021/03/23 06:03:35;;;;;;;7.55;2.85;;;;;;;-0.61;63.10;98868.81;1790495;80;21180;-74
2021/03/23 06:06:29;;;;;;;5.97;2.40;;;;;;;-0.60;63.66;98876.37;1716730;82;21385;-74
2021/03/23 06:08:56;;;;;;;5.47;1.77;;;;;;;-0.55;63.45;98877.72;1787942;80;20957;-74
2021/03/23 06:11:56;;;;;;;5.25;2.00;;;;;;;-0.49;63.24;98878.03;1735899;81;21132;-74
2021/03/23 06:14:32;;;;;;;6.65;2.60;;;;;;;-0.49;62.87;98877.49;1787992;80;21009;-74
2021/03/23 06:17:31;;;;;;;8.93;2.12;;;;;;;-0.50;61.93;98875.06;1736009;82;21044;-73
2021/03/23 06:20:25;;;;;;;6.78;1.98;;;;;;;-0.49;62.46;98880.73;1788024;80;21811;-75
2021/03/23 06:23:18;;;;;;;10.15;1.75;;;;;;;-0.48;61.93;98876.95;1726042;82;21150;-73
2021/03/23 06:25:52;;;;;;;6.62;2.60;;;;;;;-0.43;62.21;98878.34;1787184;80;21521;-73
2021/03/23 06:29:02;;;;;;;11.68;4.15;;;;;;;-0.30;62.39;98879.77;1735949;82;21084;-73
2021/03/23 06:31:38;;;;;;;10.50;3.37;;;;;;;-0.22;61.06;98880.09;1787987;80;21469;-73
2021/03/23 06:34:23;;;;;;;9.00;3.75;;;;;;;-0.23;60.94;98881.70;1735964;82;21381;-73
2021/03/23 06:36:51;;;;;;;15.18;5.72;;;;;;;-0.17;60.83;98881.47;1787939;80;21021;-73
2021/03/23 06:39:19;;;;;;;12.25;2.90;;;;;;;-0.11;61.14;98887.16;1735958;82;21079;-73
2021/03/23 06:42:01;;;;;;;5.47;2.05;;;;;;;-0.10;58.94;98886.09;1787974;80;20883;-73
2021/03/23 06:44:33;;;;;;;14.75;3.58;;;;;;;-0.10;60.18;98884.73;1736067;82;20954;-73
2021/03/23 06:47:00;;;;;;;22.70;3.87;;;;;;;-0.01;60.68;98887.75;1788220;80;21155;-74
2021/03/23 06:49:36;;;;;;;19.52;4.62;;;;;;;0.13;60.37;98889.41;1735827;82;21572;-73
2021/03/23 06:52:22;;;;;;;11.53;3.58;;;;;;;0.21;59.35;98876.75;1760026;80;21168;-73
2021/03/23 06:55:14;;;;;;;10.18;4.17;;;;;;;0.29;59.65;98882.99;1735812;82;21651;-73
2021/03/23 06:57:41;;;;;;;5.80;2.75;;;;;;;0.39;58.76;98888.42;1787969;80;21167;-73
2021/03/23 07:00:26;;;;;;;9.90;2.30;;;;;;;0.43;57.49;98880.61;1735866;82;21731;-73
2021/03/23 07:03:10;;;;;;;8.13;2.30;;;;;;;0.45;57.66;98887.37;1774569;80;21556;-74
2021/03/23 07:05:41;;;;;;;7.60;2.10;;;;;;;0.53;58.63;98883.34;1741518;81;20946;-74
2021/03/23 07:08:14;;;;;;;3.90;1.75;;;;;;;0.68;58.28;98883.34;1787965;80;21013;-74
2021/03/23 07:10:57;;;;;;;8.98;2.67;;;;;;;0.81;57.64;98877.97;1725219;82;21132;-75
2021/03/23 07:13:32;;;;;;;18.75;3.40;;;;;;;0.93;56.50;98881.23;1701564;84;21234;-74
2021/03/23 07:16:15;;;;;;;16.15;3.80;;;;;;;1.05;57.19;98875.56;1703371;84;21657;-73
2021/03/23 07:18:46;;;;;;;10.48;2.40;;;;;;;1.18;55.59;98883.91;1706742;84;21176;-73
2021/03/23 07:21:31;;;;;;;6.45;2.10;;;;;;;1.34;54.62;98883.38;1736092;82;21149;-74
2021/03/23 07:24:18;;;;;;;21.35;2.72;;;;;;;1.59;55.36;98884.70;1736175;82;20965;-74
2021/03/23 07:27:03;;;;;;;6.50;1.80;;;;;;;2.20;53.66;98882.34;1756771;81;22415;-74
2021/03/23 07:29:37;;;;;;;10.68;1.90;;;;;;;2.91;50.99;98889.50;1706426;84;21053;-74
2021/03/23 07:32:12;;;;;;;16.62;2.72;;;;;;;3.54;48.88;98880.58;1756831;81;21127;-74
2021/03/23 07:34:57;;;;;;;9.98;3.52;;;;;;;4.11;47.25;98881.04;1706432;84;21060;-74
2021/03/23 07:38:00;;;;;;;10.43;3.80;;;;;;;4.60;46.46;98871.73;1769247;80;21147;-74
2021/03/23 07:40:44;;;;;;;7.50;2.87;;;;;;;5.12;44.59;98873.40;1735931;82;22240;-73
2021/03/23 07:43:38;;;;;;;18.57;3.87;;;;;;;5.37;43.00;98869.43;1787841;80;21576;-74
2021/03/23 07:46:19;;;;;;;9.95;2.60;;;;;;;5.58;41.13;98869.89;1735063;81;20999;-76
2021/03/23 07:48:58;;;;;;;13.00;2.65;;;;;;;5.82;40.44;98875.96;1787186;80;21062;-73
2021/03/23 07:51:33;;;;;;;8.80;2.72;;;;;;;5.93;38.64;98869.80;1765293;81;21087;-73
2021/03/23 07:54:28;;;;;;;4.30;1.27;;;;;;;6.07;38.95;98874.71;1790577;80;21810;-76
2021/03/23 07:57:13;;;;;;;2.70;1.10;;;;;;;6.19;36.38;98861.94;1765713;81;21156;-73
2021/03/23 08:00:15;;;;;;;2.25;1.00;;;;;;;6.20;35.84;98870.38;1765837;81;21198;-74
2021/03/23 08:03:25;;;;;;;2.27;0.80;;;;;;;6.08;35.40;98870.06;1765869;81;21568;-74
2021/03/23 08:06:16;;;;;;;1.57;0.75;;;;;;;5.84;34.21;98863.41;1765874;81;21663;-74
2021/03/23 08:09:12;;;;;;;3.77;1.32;;;;;;;5.93;34.29;98862.44;1764792;81;21673;-73
2021/03/23 08:11:56;;;;;;;4.75;2.02;;;;;;;6.05;35.30;98867.39;1789915;80;21545;-74
2021/03/23 08:14:45;;;;;;;5.03;1.82;;;;;;;6.41;35.47;98855.74;1764995;81;21217;-74
2021/03/23 08:17:48;;;;;;;4.35;1.57;;;;;;;6.55;33.60;98851.08;1776729;80;21170;-74
2021/03/23 08:20:24;;;;;;;3.20;1.07;;;;;;;6.69;32.59;98852.42;1765393;81;21187;-77
2021/03/23 08:23:23;;;;;;;4.97;1.32;;;;;;;6.75;33.05;98858.81;1764839;81;21813;-76
2021/03/23 08:26:01;;;;;;;2.75;1.20;;;;;;;7.06;32.38;98856.72;1765551;81;21076;-76
2021/03/23 08:28:55;;;;;;;8.13;2.00;;;;;;;7.46;31.97;98859.02;1752351;81;21104;-74
2021/03/23 08:31:35;;;;;;;4.17;1.60;;;;;;;7.58;32.65;98859.23;1735367;82;21610;-74
2021/03/23 08:34:39;;;;;;;13.80;1.98;;;;;;;7.79;32.63;98854.85;1735236;82;21127;-74
2021/03/23 08:37:37;;;;;;;;;;;;;;;8.12;31.99;98865.42;1737935;82;22065;-73
2021/03/23 08:40:22;;;;;;;4.05;1.80;;;;;;;8.23;31.22;98861.28;1755796;81;20224;-73
2021/03/23 08:42:49;;;;;;;6.87;2.00;;;;;;;8.40;31.31;98863.30;1705863;82;21156;-74
2021/03/23 08:45:40;;;;;;;2.27;1.42;;;;;;;8.31;29.81;98855.03;1762048;80;21148;-74
2021/03/23 08:48:18;;;;;;;12.88;1.98;;;;;;;8.06;29.58;98863.42;1741075;81;21142;-75
2021/03/23 08:50:46;;;;;;;8.68;2.30;;;;;;;7.52;31.22;98865.38;1727106;82;21458;-74
2021/03/23 08:53:34;;;;;;;8.08;1.65;;;;;;;7.23;30.22;98857.66;1765705;81;21352;-75
2021/03/23 08:56:04;;;;;;;4.15;1.40;;;;;;;7.13;30.88;98856.55;1741337;81;21168;-74
2021/03/23 09:01:34;;;;;;;4.30;2.20;;;;;;;7.62;31.47;98857.48;1872983;76;22706;-74
2021/03/23 09:04:12;;;;;;;3.27;1.57;;;;;;;7.68;30.76;98867.72;1811062;78;20992;-75
2021/03/23 09:07:19;;;;;;;4.42;2.15;;;;;;;7.54;31.18;98863.70;1841041;77;22607;-75
2021/03/23 09:09:51;;;;;;;6.62;2.92;;;;;;;7.56;31.39;98854.08;1840816;78;21530;-73
2021/03/23 09:12:44;;;;;;;5.08;2.08;;;;;;;7.50;31.02;98867.65;1840386;77;20995;-74
2021/03/23 09:15:24;;;;;;;7.12;2.52;;;;;;;6.91;29.91;98859.28;1840822;77;21007;-74
2021/03/23 09:18:16;;;;;;;7.28;3.15;;;;;;;6.01;30.25;98862.30;1840819;78;21067;-75
2021/03/23 09:20:49;;;;;;;8.65;2.45;;;;;;;5.15;31.25;98857.84;1840899;78;21189;-74
2021/03/23 09:23:24;;;;;;;8.20;3.75;;;;;;;5.02;32.72;98855.06;1840898;78;21601;-74
2021/03/23 09:26:03;;;;;;;5.35;2.87;;;;;;;5.34;32.70;98845.53;1834299;76;21600;-74
2021/03/23 09:31:48;;;;;;;3.42;1.62;;;;;;;5.96;33.42;98834.59;1887762;76;22735;-73
2021/03/23 09:35:14;;;;;;;4.10;1.40;;;;;;;6.11;32.43;98847.66;1774604;80;21022;-72
2021/03/23 09:37:45;;;;;;;2.75;1.00;;;;;;;6.16;31.73;98843.47;1849149;77;21620;-76
2021/03/23 09:40:24;;;;;;;5.92;1.80;;;;;;;5.96;31.87;98844.68;1849052;77;21049;-75
2021/03/23 09:43:17;;;;;;;5.90;2.60;;;;;;;5.32;32.15;98839.58;1849275;77;21001;-77
2021/03/23 09:45:56;;;;;;;21.07;8.20;;;;;;;5.32;32.15;98839.58;1836126;77;20936;-75
2021/03/23 09:48:31;;;;;;;6.83;2.62;;;;;;;4.85;32.77;98854.23;1814642;78;21495;-75
2021/03/23 09:51:06;;;;;;;2.55;1.45;;;;;;;4.48;33.08;98840.91;1814239;79;22322;-76
2021/03/23 09:53:37;;;;;;;1.98;1.20;;;;;;;4.48;33.08;98840.91;1813969;79;21017;-78
2021/03/23 09:56:23;;;;;;;3.02;1.60;;;;;;;4.55;33.43;98840.55;1814012;79;20982;-76
2021/03/23 09:59:12;;;;;;;3.45;1.35;;;;;;;4.52;34.23;98843.30;1814111;78;21171;-76
2021/03/23 10:02:04;;;;;;;6.40;2.52;;;;;;;4.54;33.34;98832.13;1785147;79;21588;-78
2021/03/23 10:04:39;;;;;;;3.75;1.82;;;;;;;4.54;33.77;98838.38;1814444;79;22135;-75
2021/03/23 10:07:08;;;;;;;3.33;1.92;;;;;;;4.31;33.39;98841.95;1814006;79;21010;-75
2021/03/23 10:09:37;;;;;;;3.40;2.17;;;;;;;4.12;33.43;98848.70;1814047;79;21585;-75
2021/03/23 10:12:05;;;;;;;4.58;2.08;;;;;;;4.12;32.27;98841.11;1814073;79;21557;-75
2021/03/23 10:14:39;;;;;;;7.67;3.00;;;;;;;4.12;32.27;98841.11;1814176;78;21568;-75
2021/03/23 10:17:25;;;;;;;35.40;12.68;;;;;;;4.14;33.26;98851.94;1814109;78;21351;-75
2021/03/23 10:19:56;;;;;;;9.50;4.42;;;;;;;4.22;34.71;98840.98;1814047;79;21627;-76
2021/03/23 10:22:32;;;;;;;15.65;7.15;;;;;;;4.36;33.58;98843.25;1814145;79;22324;-75
2021/03/23 10:25:01;;;;;;;5.53;2.65;;;;;;;4.38;34.07;98850.55;1814052;78;21018;-75
2021/03/23 10:27:36;;;;;;;11.05;5.72;;;;;;;4.44;33.92;98843.95;1814135;79;21128;-75
2021/03/23 10:30:12;;;;;;;12.60;5.92;;;;;;;4.48;34.28;98849.61;1814784;78;21360;-81
2021/03/23 10:32:49;;;;;;;8.38;4.42;;;;;;;4.21;34.07;98857.83;1817213;78;21194;-75
2021/03/23 10:35:42;;;;;;;11.60;5.58;;;;;;;3.98;34.57;98862.20;1817257;78;21132;-76
2021/03/23 10:38:18;;;;;;;14.43;6.40;;;;;;;3.85;35.10;98856.10;1817167;79;21572;-75
2021/03/23 10:40:52;;;;;;;13.78;7.08;;;;;;;4.13;35.05;98850.87;1817317;79;21730;-74
2021/03/23 10:43:38;;;;;;;25.75;11.08;;;;;;;4.89;36.00;98843.02;1816729;79;22154;-74
2021/03/23 10:46:42;;;;;;;16.87;7.40;;;;;;;6.20;33.07;98848.02;1835474;77;21073;-74
2021/03/23 10:49:16;;;;;;;15.68;6.87;;;;;;;6.20;33.07;98848.02;1851858;77;21560;-74
2021/03/23 10:51:46;;;;;;;9.58;5.00;;;;;;;6.41;32.80;98842.11;1834758;77;21155;-75
2021/03/23 10:54:24;;;;;;;8.53;3.25;;;;;;;6.43;31.85;98843.42;1794817;79;21182;-76
2021/03/23 10:56:59;;;;;;;11.68;5.60;;;;;;;6.50;32.00;98838.92;1777149;80;21201;-77
2021/03/23 10:59:33;;;;;;;7.35;3.72;;;;;;;6.47;29.96;98844.98;1786649;80;21165;-75
2021/03/23 11:02:17;;;;;;;9.63;3.45;;;;;;;6.22;31.14;98838.98;1760143;80;21082;-78
2021/03/23 11:05:12;;;;;;;8.08;2.80;;;;;;;6.38;31.53;98838.08;1786793;80;21122;-75
2021/03/23 11:07:59;;;;;;;11.50;4.87;;;;;;;6.87;33.01;98835.89;1724826;80;21588;-77
2021/03/23 11:10:31;;;;;;;10.48;4.67;;;;;;;7.19;30.62;98841.66;1786757;80;21201;-76
2021/03/23 11:12:58;;;;;;;8.00;2.43;;;;;;;7.12;30.73;98845.38;1777287;80;21164;-75
2021/03/23 11:15:36;;;;;;;9.63;1.92;;;;;;;6.53;31.36;98835.58;1786559;80;21119;-75
2021/03/23 11:17:59;;;;;;;6.20;1.23;;;;;;;5.81;32.46;98854.47;1775795;80;21180;-76
2021/03/23 11:20:39;;;;;;;3.02;1.70;;;;;;;5.26;32.44;98844.84;1786223;80;21157;-76
2021/03/23 11:23:39;;;;;;;10.95;4.87;;;;;;;4.87;33.04;98840.59;1776856;80;22273;-76
2021/03/23 11:26:21;;;;;;;8.00;3.40;;;;;;;4.85;34.50;98856.39;1786422;80;21051;-76
2021/03/23 11:28:59;;;;;;;4.55;2.60;;;;;;;5.27;34.78;98837.75;1776684;80;21254;-75
2021/03/23 11:31:29;;;;;;;3.58;1.50;;;;;;;5.89;33.92;98838.83;1781503;80;21155;-76
2021/03/23 11:33:59;;;;;;;5.00;1.32;;;;;;;6.60;32.09;98825.87;1780001;80;21094;-76
2021/03/23 11:36:28;;;;;;;5.90;2.72;;;;;;;7.07;31.44;98823.66;1780089;80;21438;-75
2021/03/23 11:38:57;;;;;;;11.38;4.47;;;;;;;7.25;32.00;98818.58;1779889;80;21175;-75
2021/03/23 11:41:36;;;;;;;5.00;2.30;;;;;;;7.18;31.37;98822.86;1780093;80;20925;-76
2021/03/23 11:44:07;;;;;;;13.75;7.08;;;;;;;6.77;31.77;98824.41;1779826;80;21143;-76
2021/03/23 11:46:57;;;;;;;17.02;9.28;;;;;;;5.60;33.80;98839.09;1757363;80;21232;-77
2021/03/23 11:49:42;;;;;;;6.95;3.83;;;;;;;5.60;33.80;98839.09;1749153;82;21331;-75
2021/03/23 11:52:14;;;;;;;17.82;9.03;;;;;;;5.15;34.69;98840.16;1748865;82;21035;-76
2021/03/23 11:54:42;;;;;;;7.85;3.30;;;;;;;5.15;34.16;98819.75;1748870;82;21020;-76
2021/03/23 11:57:11;;;;;;;5.22;2.33;;;;;;;5.15;34.16;98819.75;1749087;82;21154;-76
2021/03/23 11:59:40;;;;;;;6.92;2.58;;;;;;;5.29;34.27;98827.92;1749142;82;21174;-76
2021/03/23 12:02:09;;;;;;;6.90;1.80;;;;;;;5.29;33.65;98832.81;1749150;81;21783;-75
2021/03/23 12:04:38;;;;;;;4.72;1.60;;;;;;;5.10;35.04;98834.80;1749123;82;21091;-75
2021/03/23 12:07:19;;;;;;;3.45;1.70;;;;;;;4.73;35.97;98905.52;1748917;82;21135;-75
2021/03/23 12:09:55;;;;;;;1.82;0.93;;;;;;;4.33;35.72;98842.47;1749066;81;21146;-75
2021/03/23 12:12:42;;;;;;;3.75;1.50;;;;;;;4.08;36.50;98837.35;1749127;82;21198;-76
2021/03/23 12:15:29;;;;;;;3.67;1.60;;;;;;;4.99;37.20;98826.55;1749077;81;21040;-75
2021/03/23 12:17:56;;;;;;;3.83;1.85;;;;;;;4.99;37.20;98826.55;1759271;80;21553;-76
2021/03/23 12:20:30;;;;;;;1.60;1.00;;;;;;;5.74;35.11;98830.39;1740347;82;21634;-79